createdAt,value
2023-03-24T00:00:49.282Z,4.50
2023-03-24T00:03:18.226Z,4.57
2023-03-24T00:05:50.396Z,5.13
2023-03-24T00:08:22.465Z,5.72
2023-03-24T00:10:51.126Z,4.93
2023-03-24T00:13:19.440Z,4.68
2023-03-24T00:15:48.784Z,6.20
2023-03-24T00:18:18.355Z,8.63
2023-03-24T00:20:47.152Z,6.28
2023-03-24T00:23:16.371Z,7.75
2023-03-24T00:25:49.538Z,8.43
2023-03-24T00:28:17.978Z,9.23
2023-03-24T00:30:52.790Z,8.57
2023-03-24T00:33:21.534Z,10.52
2023-03-24T00:35:50.944Z,9.07
2023-03-24T00:38:20.136Z,9.35
2023-03-24T00:40:51.247Z,9.80
2023-03-24T00:43:19.900Z,10.32
2023-03-24T00:45:48.642Z,10.43
2023-03-24T00:48:20.023Z,11.68
2023-03-24T00:50:49.782Z,12.98
2023-03-24T00:53:20.393Z,11.00
2023-03-24T00:55:50.616Z,8.68
2023-03-24T00:58:20.146Z,9.52
2023-03-24T01:00:50.733Z,9.27
2023-03-24T01:03:22.102Z,10.80
2023-03-24T01:05:51.048Z,8.88
2023-03-24T01:08:20.731Z,11.95
2023-03-24T01:10:53.249Z,10.18
2023-03-24T01:13:22.783Z,8.60
2023-03-24T01:15:51.976Z,10.10
2023-03-24T01:18:21.496Z,8.55
2023-03-24T01:20:50.330Z,8.85
2023-03-24T01:23:21.830Z,8.88
2023-03-24T01:25:52.914Z,10.35
2023-03-24T01:28:25.813Z,8.88
2023-03-24T01:30:55.399Z,6.95
2023-03-24T01:33:23.865Z,6.95
2023-03-24T01:35:53.128Z,8.55
2023-03-24T01:38:21.792Z,8.98
2023-03-24T01:40:52.581Z,9.40
2023-03-24T01:43:23.058Z,9.15
2023-03-24T01:46:06.761Z,6.97
2023-03-24T01:48:41.449Z,7.07
2023-03-24T01:51:13.833Z,7.78
2023-03-24T01:53:46.087Z,9.13
2023-03-24T01:56:16.342Z,8.05
2023-03-24T01:58:50.751Z,7.05
2023-03-24T02:01:28.522Z,6.78
2023-03-24T02:04:17.452Z,8.95
2023-03-24T02:06:48.978Z,6.40
2023-03-24T02:09:17.680Z,6.18
2023-03-24T02:11:47.630Z,7.15
2023-03-24T02:14:16.263Z,6.93
2023-03-24T02:16:56.836Z,6.68
2023-03-24T02:19:52.227Z,7.70
2023-03-24T02:23:04.863Z,6.93
2023-03-24T02:26:10.665Z,6.15
2023-03-24T02:28:52.673Z,5.82
2023-03-24T02:31:38.897Z,6.30
2023-03-24T02:34:37.137Z,5.68
2023-03-24T02:37:28.438Z,5.90
2023-03-24T02:40:35.900Z,5.47
2023-03-24T02:43:18.387Z,6.72
2023-03-24T02:45:58.278Z,5.35
2023-03-24T02:48:37.515Z,5.85
2023-03-24T02:51:14.412Z,4.63
2023-03-24T02:53:55.111Z,7.75
2023-03-24T02:56:35.380Z,5.65
2023-03-24T02:59:21.389Z,8.95
2023-03-24T03:01:59.607Z,5.65
2023-03-24T03:04:52.302Z,5.90
2023-03-24T03:07:25.009Z,6.60
2023-03-24T03:09:58.799Z,7.00
2023-03-24T03:12:34.074Z,5.95
2023-03-24T03:15:08.020Z,6.63
2023-03-24T03:17:42.380Z,6.38
2023-03-24T03:20:20.638Z,6.55
2023-03-24T03:22:53.329Z,7.68
2023-03-24T03:25:26.070Z,13.05
2023-03-24T03:27:58.834Z,7.45
2023-03-24T03:30:33.762Z,8.02
2023-03-24T03:33:06.905Z,5.85
2023-03-24T03:35:39.371Z,6.07
2023-03-24T03:38:15.656Z,5.70
2023-03-24T03:40:51.668Z,5.72
2023-03-24T03:43:26.007Z,7.35
2023-03-24T03:45:55.179Z,5.95
2023-03-24T03:48:35.972Z,7.13
2023-03-24T03:51:13.838Z,7.03
2023-03-24T03:53:53.570Z,7.80
2023-03-24T03:56:25.082Z,8.65
2023-03-24T03:59:25.370Z,7.10
2023-03-24T04:01:55.162Z,8.70
2023-03-24T04:05:06.964Z,6.95
2023-03-24T04:07:49.835Z,6.78
2023-03-24T04:10:48.565Z,6.78
2023-03-24T04:13:26.413Z,7.63
2023-03-24T04:16:22.098Z,8.05
2023-03-24T04:19:13.881Z,6.93
2023-03-24T04:21:55.008Z,6.95
2023-03-24T04:24:40.162Z,7.65
2023-03-24T04:27:17.729Z,9.95
2023-03-24T04:29:54.532Z,8.60
2023-03-24T04:32:41.363Z,8.35
2023-03-24T04:35:14.316Z,11.65
2023-03-24T04:38:06.624Z,8.75
2023-03-24T04:40:42.131Z,10.30
2023-03-24T04:43:17.488Z,9.80
2023-03-24T04:45:49.667Z,9.00
2023-03-24T04:48:29.130Z,9.68
2023-03-24T04:51:11.138Z,10.27
2023-03-24T04:53:59.355Z,11.00
2023-03-24T04:56:39.864Z,11.27
2023-03-24T04:59:13.031Z,12.23
2023-03-24T05:01:49.408Z,9.85
2023-03-24T05:04:36.956Z,10.20
2023-03-24T05:07:25.597Z,11.13
2023-03-24T05:09:58.565Z,9.43
2023-03-24T05:12:27.845Z,13.35
2023-03-24T05:15:18.475Z,13.52
2023-03-24T05:17:49.694Z,10.02
2023-03-24T05:20:20.321Z,10.02
2023-03-24T05:22:52.174Z,8.13
2023-03-24T05:25:21.576Z,5.00
2023-03-24T05:27:51.000Z,4.95
2023-03-24T05:30:25.825Z,5.65
2023-03-24T05:33:04.844Z,5.65
2023-03-24T05:35:34.712Z,5.07
2023-03-24T05:38:31.457Z,4.68
2023-03-24T05:41:04.697Z,5.80
2023-03-24T05:43:37.358Z,3.90
2023-03-24T05:46:12.252Z,5.15
2023-03-24T05:48:42.036Z,4.10
2023-03-24T05:51:20.825Z,4.80
2023-03-24T05:53:58.120Z,5.35
2023-03-24T05:56:33.133Z,4.47
2023-03-24T05:59:12.596Z,3.60
2023-03-24T06:02:01.031Z,4.38
2023-03-24T06:04:53.409Z,3.65
2023-03-24T06:07:27.037Z,3.25
2023-03-24T06:12:59.802Z,7.90
2023-03-24T06:15:31.736Z,7.63
2023-03-24T06:18:14.950Z,8.20
2023-03-24T06:20:44.820Z,6.53
2023-03-24T06:23:23.787Z,6.47
2023-03-24T06:26:14.102Z,7.60
2023-03-24T06:28:51.866Z,6.85
2023-03-24T06:31:21.485Z,6.43
2023-03-24T06:33:53.061Z,6.45
2023-03-24T06:36:23.442Z,8.18
2023-03-24T06:38:54.070Z,6.32
2023-03-24T06:41:23.632Z,5.00
2023-03-24T06:43:57.340Z,5.38
2023-03-24T06:46:25.897Z,5.47
2023-03-24T06:48:54.468Z,6.13
2023-03-24T06:51:22.679Z,6.07
2023-03-24T06:53:51.093Z,5.53
2023-03-24T06:56:21.427Z,5.35
2023-03-24T06:58:56.671Z,4.93
2023-03-24T07:01:32.180Z,3.83
2023-03-24T07:04:07.142Z,4.38
2023-03-24T07:07:00.803Z,3.80
2023-03-24T07:09:35.334Z,4.85
2023-03-24T07:12:06.791Z,3.80
2023-03-24T07:14:36.768Z,3.53
2023-03-24T07:17:07.858Z,4.60
2023-03-24T07:19:45.941Z,4.57
2023-03-24T07:22:35.555Z,4.88
2023-03-24T07:25:24.003Z,5.72
2023-03-24T07:27:59.674Z,4.47
2023-03-24T07:30:39.426Z,4.43
2023-03-24T07:33:12.239Z,5.63
2023-03-24T07:35:42.682Z,3.85
2023-03-24T07:38:11.518Z,4.00
2023-03-24T07:40:41.400Z,4.05
2023-03-24T07:43:11.111Z,4.57
2023-03-24T07:45:51.049Z,5.05
2023-03-24T07:48:19.968Z,4.95
2023-03-24T07:50:48.375Z,3.80
2023-03-24T07:53:36.853Z,3.80
2023-03-24T07:56:05.854Z,3.90
2023-03-24T07:58:35.981Z,3.70
2023-03-24T08:01:16.403Z,5.35
2023-03-24T08:03:49.489Z,5.75
2023-03-24T08:06:18.039Z,4.18
2023-03-24T08:08:51.816Z,4.28
2023-03-24T08:11:20.371Z,4.03
2023-03-24T08:13:50.039Z,4.97
2023-03-24T08:16:18.516Z,4.60
2023-03-24T08:18:48.629Z,3.60
2023-03-24T08:21:17.213Z,3.38
2023-03-24T08:23:45.727Z,3.75
2023-03-24T08:26:14.060Z,3.58
2023-03-24T08:28:42.545Z,3.35
2023-03-24T08:31:13.224Z,3.33
2023-03-24T08:33:41.649Z,4.10
2023-03-24T08:36:10.019Z,3.85
2023-03-24T08:38:38.944Z,4.70
2023-03-24T08:41:08.489Z,3.90
2023-03-24T08:43:38.055Z,4.55
2023-03-24T08:46:12.480Z,4.65
2023-03-24T08:48:43.848Z,4.40
2023-03-24T08:51:13.711Z,5.03
2023-03-24T08:53:42.883Z,4.43
2023-03-24T08:56:13.062Z,4.93
2023-03-24T08:58:41.359Z,5.03
2023-03-24T09:01:10.219Z,5.05
2023-03-24T09:03:39.516Z,5.50
2023-03-24T09:06:10.138Z,5.20
2023-03-24T09:08:38.603Z,3.03
2023-03-24T09:11:07.393Z,5.25
2023-03-24T09:13:35.670Z,4.45
2023-03-24T09:16:06.979Z,7.63
2023-03-24T09:18:35.531Z,3.80
2023-03-24T09:21:07.571Z,3.78
2023-03-24T09:23:37.538Z,4.03
2023-03-24T09:26:06.965Z,4.93
2023-03-24T09:28:35.538Z,6.90
2023-03-24T09:31:07.129Z,5.35
2023-03-24T09:33:35.721Z,3.05
2023-03-24T09:36:07.175Z,3.05
2023-03-24T09:38:36.931Z,3.20
2023-03-24T09:41:18.088Z,5.72
2023-03-24T09:43:52.011Z,4.43
2023-03-24T09:46:28.168Z,5.32
2023-03-24T09:48:57.882Z,4.75
2023-03-24T09:51:28.058Z,3.13
2023-03-24T09:54:05.924Z,5.78
2023-03-24T09:56:37.317Z,5.35
2023-03-24T09:59:08.492Z,4.35
2023-03-24T10:01:37.158Z,5.35
2023-03-24T10:04:14.568Z,8.45
2023-03-24T10:06:43.687Z,3.22
2023-03-24T10:09:24.700Z,7.20
2023-03-24T10:12:12.585Z,7.10
2023-03-24T10:14:51.039Z,4.88
2023-03-24T10:17:29.957Z,5.35
2023-03-24T10:20:05.802Z,4.90
2023-03-24T10:22:39.964Z,9.25
2023-03-24T10:25:17.778Z,6.70
2023-03-24T10:27:50.175Z,5.63
2023-03-24T10:30:22.879Z,3.15
2023-03-24T10:32:51.490Z,6.85
2023-03-24T10:35:24.215Z,4.10
2023-03-24T10:37:53.918Z,5.22
2023-03-24T10:40:33.181Z,4.30
2023-03-24T10:43:07.154Z,7.18
2023-03-24T10:45:40.726Z,3.05
2023-03-24T10:48:10.130Z,5.93
2023-03-24T10:50:43.923Z,6.78
2023-03-24T10:53:19.834Z,6.30
2023-03-24T10:55:50.738Z,6.20
2023-03-24T10:58:26.272Z,4.43
2023-03-24T11:00:55.667Z,5.07
2023-03-24T11:03:29.600Z,3.78
2023-03-24T11:06:05.970Z,6.70
2023-03-24T11:08:36.797Z,5.22
2023-03-24T11:11:29.207Z,7.78
2023-03-24T11:14:03.005Z,5.50
2023-03-24T11:16:33.635Z,5.90
2023-03-24T11:19:05.928Z,5.43
2023-03-24T11:21:37.570Z,5.10
2023-03-24T11:24:12.332Z,8.30
2023-03-24T11:26:45.619Z,4.60
2023-03-24T11:29:18.340Z,5.05
2023-03-24T11:31:54.336Z,5.60
2023-03-24T11:34:25.924Z,5.30
2023-03-24T11:37:00.075Z,4.13
2023-03-24T11:39:32.826Z,4.25
2023-03-24T11:42:33.612Z,4.18
2023-03-24T11:45:05.114Z,4.88
2023-03-24T11:47:35.381Z,5.22
2023-03-24T11:50:17.608Z,4.07
2023-03-24T11:52:50.026Z,4.88
2023-03-24T11:55:23.709Z,2.42
2023-03-24T11:58:00.655Z,3.97
2023-03-24T12:00:36.339Z,3.35
2023-03-24T12:03:32.884Z,6.82
2023-03-24T12:06:12.228Z,3.25
2023-03-24T12:08:50.934Z,4.80
2023-03-24T12:11:32.696Z,3.05
2023-03-24T12:14:06.841Z,3.53
2023-03-24T12:16:50.725Z,2.88
2023-03-24T12:19:34.097Z,3.20
2023-03-24T12:22:15.073Z,1.90
2023-03-24T12:25:05.648Z,4.65
2023-03-24T12:27:43.891Z,4.32
2023-03-24T12:30:20.678Z,3.47
2023-03-24T12:32:59.237Z,4.35
2023-03-24T12:35:45.169Z,4.72
2023-03-24T12:38:26.952Z,4.25
2023-03-24T12:41:11.094Z,4.65
2023-03-24T12:43:49.043Z,2.38
2023-03-24T12:46:40.702Z,2.08
2023-03-24T12:49:30.857Z,3.65
2023-03-24T12:52:17.791Z,2.95
2023-03-24T12:54:56.215Z,2.60
2023-03-24T12:57:29.425Z,3.08
2023-03-24T13:00:06.778Z,4.05
2023-03-24T13:02:42.894Z,4.75
2023-03-24T13:05:21.053Z,3.53
2023-03-24T13:07:54.165Z,2.22
2023-03-24T13:10:27.054Z,4.35
2023-03-24T13:13:00.718Z,4.03
2023-03-24T13:15:34.667Z,2.92
2023-03-24T13:18:21.484Z,4.22
2023-03-24T13:20:55.048Z,3.72
2023-03-24T13:23:37.859Z,4.72
2023-03-24T13:26:23.341Z,4.30
2023-03-24T13:29:05.985Z,6.75
2023-03-24T13:31:40.780Z,5.40
2023-03-24T13:34:23.046Z,1.60
2023-03-24T13:36:55.773Z,3.40
2023-03-24T13:39:26.816Z,4.18
2023-03-24T13:41:57.399Z,4.32
2023-03-24T13:44:29.042Z,3.70
2023-03-24T13:47:16.044Z,5.00
2023-03-24T13:49:54.368Z,3.40
2023-03-24T13:52:28.812Z,4.65
2023-03-24T13:55:00.831Z,4.95
2023-03-24T13:57:32.194Z,4.40
2023-03-24T14:00:11.396Z,6.63
2023-03-24T14:02:49.036Z,2.92
2023-03-24T14:05:35.621Z,5.10
2023-03-24T14:08:19.320Z,2.60
2023-03-24T14:10:49.955Z,6.70
2023-03-24T14:13:31.946Z,4.25
2023-03-24T14:16:00.275Z,4.43
2023-03-24T14:18:43.206Z,3.30
2023-03-24T14:21:13.036Z,10.13
2023-03-24T14:23:43.955Z,6.03
2023-03-24T14:26:16.052Z,2.92
2023-03-24T14:28:46.643Z,4.00
2023-03-24T14:31:25.299Z,5.97
2023-03-24T14:34:05.996Z,3.63
2023-03-24T14:36:39.858Z,4.45
2023-03-24T14:39:12.384Z,2.88
2023-03-24T14:41:44.221Z,3.05
2023-03-24T14:44:12.839Z,2.22
2023-03-24T14:46:43.733Z,5.40
2023-03-24T14:49:19.955Z,2.80
2023-03-24T14:51:57.848Z,3.55
2023-03-24T14:54:33.734Z,2.72
2023-03-24T14:57:05.138Z,4.07
2023-03-24T14:59:46.577Z,5.13
2023-03-24T15:02:26.256Z,6.13
2023-03-24T15:05:29.938Z,2.85
2023-03-24T15:08:14.344Z,3.58
2023-03-24T15:10:47.373Z,3.42
2023-03-24T15:13:32.599Z,3.40
2023-03-24T15:16:04.835Z,3.30
2023-03-24T15:18:33.291Z,2.70
2023-03-24T15:21:04.722Z,3.47
2023-03-24T15:23:34.281Z,3.53
2023-03-24T15:26:06.178Z,6.13
2023-03-24T15:28:34.498Z,3.25
2023-03-24T15:31:04.769Z,1.58
2023-03-24T15:33:40.075Z,3.10
2023-03-24T15:36:16.544Z,2.40
2023-03-24T15:38:50.791Z,2.67
2023-03-24T15:41:21.801Z,3.75
2023-03-24T15:43:53.026Z,3.95
2023-03-24T15:46:26.929Z,4.38
2023-03-24T15:48:57.570Z,3.55
2023-03-24T15:51:48.752Z,6.03
2023-03-24T15:54:24.274Z,3.88
2023-03-24T15:57:14.688Z,2.53
2023-03-24T15:59:47.116Z,2.90
2023-03-24T16:02:28.698Z,2.85
2023-03-24T16:07:37.598Z,2.60
2023-03-24T16:10:40.506Z,3.17
2023-03-24T16:13:19.970Z,3.58
2023-03-24T16:15:53.914Z,2.83
2023-03-24T16:18:25.300Z,5.82
2023-03-24T16:20:53.608Z,3.55
2023-03-24T16:23:21.972Z,5.13
2023-03-24T16:25:51.553Z,3.42
2023-03-24T16:28:22.622Z,4.55
2023-03-24T16:30:57.826Z,3.03
2023-03-24T16:33:27.192Z,4.55
2023-03-24T16:35:55.613Z,5.13
2023-03-24T16:38:23.969Z,3.53
2023-03-24T16:40:56.044Z,4.40
2023-03-24T16:43:24.897Z,3.65
2023-03-24T16:45:53.420Z,3.63
2023-03-24T16:48:21.820Z,5.20
2023-03-24T16:50:53.306Z,2.45
2023-03-24T16:53:22.026Z,4.72
2023-03-24T16:55:50.296Z,5.20
2023-03-24T16:58:20.144Z,3.45
2023-03-24T17:00:49.240Z,4.07
2023-03-24T17:03:18.259Z,3.95
2023-03-24T17:05:48.427Z,2.95
2023-03-24T17:08:18.817Z,7.03
2023-03-24T17:10:50.003Z,3.67
2023-03-24T17:13:22.024Z,7.05
2023-03-24T17:15:51.070Z,2.80
2023-03-24T17:18:19.821Z,3.20
2023-03-24T17:20:48.766Z,3.53
2023-03-24T17:23:18.883Z,2.90
2023-03-24T17:25:47.505Z,4.40
2023-03-24T17:28:16.746Z,3.53
2023-03-24T17:30:46.391Z,3.95
2023-03-24T17:33:15.889Z,3.28
2023-03-24T17:35:46.413Z,3.97
2023-03-24T17:38:16.577Z,3.30
2023-03-24T17:40:46.467Z,3.72
2023-03-24T17:43:27.152Z,3.30
2023-03-24T17:45:59.115Z,5.15
2023-03-24T17:48:28.100Z,3.95
2023-03-24T17:50:57.741Z,4.30
2023-03-24T17:53:26.790Z,4.47
2023-03-24T17:55:57.582Z,7.00
2023-03-24T17:58:27.469Z,2.95
2023-03-24T18:00:57.990Z,4.05
2023-03-24T18:03:28.021Z,4.70
2023-03-24T18:05:56.672Z,3.78
2023-03-24T18:08:25.107Z,6.43
2023-03-24T18:10:53.308Z,2.70
2023-03-24T18:13:21.722Z,3.22
2023-03-24T18:15:49.918Z,3.35
2023-03-24T18:18:18.267Z,3.72
2023-03-24T18:20:47.923Z,4.65
2023-03-24T18:23:17.432Z,4.32
2023-03-24T18:25:46.706Z,6.60
2023-03-24T18:28:14.984Z,6.10
2023-03-24T18:30:43.623Z,3.28
2023-03-24T18:33:15.916Z,2.90
2023-03-24T18:35:44.376Z,3.97
2023-03-24T18:38:15.132Z,3.35
2023-03-24T18:40:43.553Z,5.30
2023-03-24T18:43:11.820Z,4.20
2023-03-24T18:45:40.134Z,6.68
2023-03-24T18:48:08.548Z,3.53
2023-03-24T18:50:40.385Z,21.48
2023-03-24T18:53:08.705Z,5.53
2023-03-24T18:55:38.573Z,3.67
2023-03-24T18:58:09.558Z,1.60
2023-03-24T19:00:37.897Z,5.38
2023-03-24T19:03:06.739Z,3.05
2023-03-24T19:05:35.442Z,4.95
2023-03-24T19:08:07.521Z,6.28
2023-03-24T19:10:36.515Z,4.78
2023-03-24T19:13:08.409Z,5.25
2023-03-24T19:15:36.809Z,7.45
2023-03-24T19:18:06.916Z,4.05
2023-03-24T19:20:37.683Z,6.07
2023-03-24T19:23:34.962Z,5.07
2023-03-24T19:26:06.764Z,6.88
2023-03-24T19:28:37.635Z,3.72
2023-03-24T19:31:09.712Z,3.55
2023-03-24T19:33:38.695Z,2.67
2023-03-24T19:36:09.834Z,1.17
2023-03-24T19:38:39.144Z,3.63
2023-03-24T19:41:08.636Z,1.17
2023-03-24T19:43:38.251Z,2.47
2023-03-24T19:46:07.858Z,3.92
2023-03-24T19:48:36.713Z,3.58
2023-03-24T19:51:09.360Z,3.33
2023-03-24T19:53:37.799Z,3.83
2023-03-24T19:56:11.678Z,2.65
2023-03-24T19:58:41.553Z,2.85
2023-03-24T20:01:10.343Z,2.17
2023-03-24T20:03:39.993Z,2.55
2023-03-24T20:06:10.539Z,0.85
2023-03-24T20:08:39.539Z,2.35
2023-03-24T20:11:09.172Z,2.13
2023-03-24T20:13:37.857Z,1.70
2023-03-24T20:16:08.426Z,1.25
2023-03-24T20:18:38.861Z,3.13
2023-03-24T20:21:08.430Z,2.35
2023-03-24T20:23:36.740Z,2.95
2023-03-24T20:26:06.837Z,2.25
2023-03-24T20:28:35.266Z,1.85
2023-03-24T20:31:08.352Z,3.45
2023-03-24T20:33:36.792Z,2.95
2023-03-24T20:36:07.389Z,3.42
2023-03-24T20:38:36.339Z,4.20
2023-03-24T20:41:08.094Z,7.13
2023-03-24T20:43:38.794Z,3.53
2023-03-24T20:46:10.455Z,2.63
2023-03-24T20:48:38.855Z,4.68
2023-03-24T20:51:11.808Z,7.20
2023-03-24T20:53:40.620Z,4.65
2023-03-24T20:56:13.208Z,2.92
2023-03-24T20:58:42.218Z,5.18
2023-03-24T21:01:21.920Z,3.63
2023-03-24T21:03:52.113Z,2.58
2023-03-24T21:06:21.735Z,3.80
2023-03-24T21:08:50.214Z,5.70
2023-03-24T21:11:18.702Z,2.53
2023-03-24T21:13:47.063Z,5.43
2023-03-24T21:16:19.498Z,5.00
2023-03-24T21:18:48.597Z,3.70
2023-03-24T21:21:17.061Z,4.60
2023-03-24T21:23:45.436Z,4.70
2023-03-24T21:26:17.179Z,3.05
2023-03-24T21:28:46.057Z,3.75
2023-03-24T21:31:20.068Z,4.85
2023-03-24T21:33:48.601Z,2.58
2023-03-24T21:36:17.153Z,4.78
2023-03-24T21:38:49.451Z,4.72
2023-03-24T21:41:18.249Z,2.53
2023-03-24T21:43:51.007Z,4.00
2023-03-24T21:46:21.973Z,2.42
2023-03-24T21:48:52.082Z,2.45
2023-03-24T21:51:23.898Z,2.47
2023-03-24T21:53:55.396Z,1.63
2023-03-24T21:56:24.290Z,2.17
2023-03-24T21:58:54.553Z,3.90
2023-03-24T22:01:24.566Z,2.85
2023-03-24T22:03:54.219Z,2.75
2023-03-24T22:06:23.274Z,2.70
2023-03-24T22:08:53.170Z,2.35
2023-03-24T22:11:21.807Z,1.35
2023-03-24T22:13:50.198Z,1.40
2023-03-24T22:16:18.536Z,3.70
2023-03-24T22:18:48.214Z,1.52
2023-03-24T22:21:16.707Z,1.95
2023-03-24T22:23:44.898Z,1.85
2023-03-24T22:26:15.380Z,0.73
2023-03-24T22:28:44.159Z,2.97
2023-03-24T22:31:14.541Z,2.92
2023-03-24T22:33:43.351Z,2.40
2023-03-24T22:36:13.585Z,1.85
2023-03-24T22:38:42.431Z,1.60
2023-03-24T22:41:13.345Z,0.88
2023-03-24T22:43:42.192Z,0.93
2023-03-24T22:46:11.348Z,0.80
2023-03-24T22:48:40.198Z,1.17
2023-03-24T22:51:09.727Z,1.15
2023-03-24T22:53:39.284Z,1.30
2023-03-24T22:56:09.106Z,0.40
2023-03-24T22:58:37.469Z,1.27
2023-03-24T23:01:07.372Z,0.68
2023-03-24T23:03:36.095Z,0.63
2023-03-24T23:06:05.976Z,1.10
2023-03-24T23:08:35.166Z,0.90
2023-03-24T23:11:09.012Z,0.45
2023-03-24T23:13:38.741Z,0.85
2023-03-24T23:16:08.837Z,1.23
2023-03-24T23:18:41.260Z,1.50
2023-03-24T23:21:11.405Z,1.92
2023-03-24T23:23:41.282Z,1.58
2023-03-24T23:26:26.087Z,0.85
2023-03-24T23:28:55.306Z,1.23
2023-03-24T23:31:25.638Z,0.88
2023-03-24T23:33:56.001Z,0.82
2023-03-24T23:36:26.150Z,0.90
2023-03-24T23:38:54.823Z,0.55
2023-03-24T23:41:24.655Z,0.35
2023-03-24T23:43:53.568Z,0.93
2023-03-24T23:46:23.685Z,0.25
2023-03-24T23:48:52.152Z,0.40
2023-03-24T23:51:20.497Z,0.93
2023-03-24T23:53:48.791Z,1.00
2023-03-24T23:56:17.152Z,0.60
2023-03-24T23:58:47.885Z,0.75
